createdAt,value
2017-05-21T00:00:29.635Z,12.00
2017-05-21T00:01:26.630Z,12.00
2017-05-21T00:02:23.590Z,12.00
2017-05-21T00:03:20.577Z,12.00
2017-05-21T00:04:18.284Z,12.00
2017-05-21T00:05:15.973Z,12.00
2017-05-21T00:06:12.942Z,12.00
2017-05-21T00:07:09.899Z,11.90
2017-05-21T00:08:06.854Z,11.90
2017-05-21T00:09:03.845Z,11.90
2017-05-21T00:10:00.796Z,11.90
2017-05-21T00:10:57.813Z,11.90
2017-05-21T00:11:54.762Z,11.90
2017-05-21T00:12:51.717Z,11.80
2017-05-21T00:13:48.673Z,11.80
2017-05-21T00:14:45.648Z,11.80
2017-05-21T00:15:42.614Z,11.80
2017-05-21T00:16:39.586Z,11.80
2017-05-21T00:17:36.547Z,11.90
2017-05-21T00:18:33.508Z,11.90
2017-05-21T00:19:30.463Z,11.90
2017-05-21T00:20:27.423Z,11.90
2017-05-21T00:21:24.379Z,11.90
2017-05-21T00:22:21.334Z,11.90
2017-05-21T00:23:18.304Z,11.90
2017-05-21T00:24:15.256Z,11.90
2017-05-21T00:25:12.227Z,11.80
2017-05-21T00:26:09.182Z,11.80
2017-05-21T00:27:06.130Z,11.90
2017-05-21T00:28:03.096Z,11.90
2017-05-21T00:29:00.056Z,11.80
2017-05-21T00:29:57.014Z,11.80
2017-05-21T00:30:53.983Z,11.80
2017-05-21T00:31:50.949Z,11.70
2017-05-21T00:32:47.903Z,11.70
2017-05-21T00:33:44.874Z,11.70
2017-05-21T00:34:41.837Z,11.70
2017-05-21T00:35:38.783Z,11.70
2017-05-21T00:36:35.767Z,11.70
2017-05-21T00:37:32.719Z,11.60
2017-05-21T00:38:29.670Z,11.60
2017-05-21T00:39:26.642Z,11.60
2017-05-21T00:40:23.594Z,11.60
2017-05-21T00:41:20.573Z,11.60
2017-05-21T00:42:18.262Z,11.50
2017-05-21T00:43:15.227Z,11.60
2017-05-21T00:44:12.368Z,11.60
2017-05-21T00:45:09.314Z,11.50
2017-05-21T00:46:06.285Z,11.50
2017-05-21T00:47:03.259Z,11.50
2017-05-21T00:48:00.234Z,11.40
2017-05-21T00:48:57.182Z,11.50
2017-05-21T00:49:54.133Z,11.50
2017-05-21T00:50:51.121Z,11.50
2017-05-21T00:51:48.200Z,11.40
2017-05-21T00:52:45.150Z,11.40
2017-05-21T00:53:42.126Z,11.40
2017-05-21T00:54:39.083Z,11.40
2017-05-21T00:55:36.084Z,11.40
2017-05-21T00:56:33.026Z,11.30
2017-05-21T00:57:29.986Z,11.30
2017-05-21T00:58:26.949Z,11.30
2017-05-21T00:59:23.935Z,11.30
2017-05-21T01:00:20.914Z,11.30
2017-05-21T01:01:17.869Z,11.30
2017-05-21T01:02:14.818Z,11.20
2017-05-21T01:03:11.877Z,11.20
2017-05-21T01:04:08.857Z,11.30
2017-05-21T01:05:05.812Z,11.30
2017-05-21T01:06:02.768Z,11.30
2017-05-21T01:06:59.726Z,11.30
2017-05-21T01:07:56.681Z,11.30
2017-05-21T01:08:53.659Z,11.30
2017-05-21T01:09:50.624Z,11.20
2017-05-21T01:10:47.582Z,11.20
2017-05-21T01:11:45.270Z,11.20
2017-05-21T01:12:42.234Z,11.10
2017-05-21T01:13:39.235Z,11.10
2017-05-21T01:14:36.184Z,11.10
2017-05-21T01:15:33.134Z,11.10
2017-05-21T01:16:30.191Z,11.10
2017-05-21T01:17:27.150Z,11.10
2017-05-21T01:18:24.865Z,11.00
2017-05-21T01:19:21.814Z,11.10
2017-05-21T01:20:18.806Z,11.10
2017-05-21T01:21:15.758Z,11.10
2017-05-21T01:22:12.715Z,11.10
2017-05-21T01:23:09.669Z,11.10
2017-05-21T01:24:06.623Z,11.10
2017-05-21T01:25:03.591Z,11.10
2017-05-21T01:26:00.570Z,11.10
2017-05-21T01:26:57.518Z,11.10
2017-05-21T01:27:54.480Z,11.10
2017-05-21T01:28:51.434Z,11.10
2017-05-21T01:29:48.398Z,11.10
2017-05-21T01:30:45.358Z,11.10
2017-05-21T01:31:42.330Z,11.10
2017-05-21T01:32:39.278Z,11.10
2017-05-21T01:33:36.254Z,11.10
2017-05-21T01:34:33.205Z,11.10
2017-05-21T01:35:31.207Z,11.10
2017-05-21T01:36:28.176Z,11.10
2017-05-21T01:37:25.125Z,11.00
2017-05-21T01:38:22.081Z,11.00
2017-05-21T01:39:19.036Z,11.00
2017-05-21T01:40:15.999Z,11.00
2017-05-21T01:41:12.972Z,11.00
2017-05-21T01:42:10.297Z,11.00
2017-05-21T01:43:07.259Z,11.00
2017-05-21T01:44:04.963Z,10.90
2017-05-21T01:45:01.922Z,10.90
2017-05-21T01:45:58.882Z,11.00
2017-05-21T01:46:56.594Z,10.90
2017-05-21T01:47:53.545Z,11.00
2017-05-21T01:48:50.512Z,11.00
2017-05-21T01:49:48.211Z,10.90
2017-05-21T01:50:45.169Z,11.00
2017-05-21T01:51:42.141Z,11.00
2017-05-21T01:52:39.859Z,10.90
2017-05-21T01:53:36.830Z,11.00
2017-05-21T01:54:33.797Z,10.90
2017-05-21T01:55:30.762Z,11.00
2017-05-21T01:56:27.710Z,10.90
2017-05-21T01:57:24.665Z,10.90
2017-05-21T01:58:21.639Z,11.00
2017-05-21T01:59:18.595Z,11.00
2017-05-21T02:00:15.557Z,10.90
2017-05-21T02:01:12.508Z,10.90
2017-05-21T02:02:10.210Z,10.90
2017-05-21T02:03:07.159Z,10.90
2017-05-21T02:04:04.131Z,10.90
2017-05-21T02:05:01.089Z,10.90
2017-05-21T02:05:58.042Z,10.90
2017-05-21T02:06:55.006Z,10.90
2017-05-21T02:07:51.966Z,10.90
2017-05-21T02:08:48.981Z,10.90
2017-05-21T02:09:45.941Z,10.80
2017-05-21T02:10:43.643Z,10.80
2017-05-21T02:11:40.599Z,10.80
2017-05-21T02:12:37.578Z,10.90
2017-05-21T02:13:34.556Z,10.80
2017-05-21T02:14:31.507Z,10.80
2017-05-21T02:15:28.490Z,10.80
2017-05-21T02:16:25.446Z,10.80
2017-05-21T02:17:22.419Z,10.80
2017-05-21T02:18:19.408Z,10.70
2017-05-21T02:19:16.362Z,10.70
2017-05-21T02:20:13.337Z,10.70
2017-05-21T02:21:10.288Z,10.70
2017-05-21T02:22:07.251Z,10.70
2017-05-21T02:23:04.233Z,10.60
2017-05-21T02:24:01.198Z,10.70
2017-05-21T02:24:58.173Z,10.70
2017-05-21T02:25:55.170Z,10.70
2017-05-21T02:26:52.118Z,10.60
2017-05-21T02:27:49.073Z,10.70
2017-05-21T02:28:46.027Z,10.70
2017-05-21T02:29:42.987Z,10.70
2017-05-21T02:30:39.938Z,10.70
2017-05-21T02:31:36.891Z,10.70
2017-05-21T02:32:33.900Z,10.70
2017-05-21T02:33:30.850Z,10.70
2017-05-21T02:34:27.820Z,10.70
2017-05-21T02:35:24.769Z,10.70
2017-05-21T02:36:21.727Z,10.70
2017-05-21T02:37:18.677Z,10.70
2017-05-21T02:38:15.634Z,10.60
2017-05-21T02:39:12.639Z,10.60
2017-05-21T02:40:09.600Z,10.60
2017-05-21T02:41:06.557Z,10.50
2017-05-21T02:42:03.515Z,10.50
2017-05-21T02:43:00.684Z,10.50
2017-05-21T02:43:57.621Z,10.50
2017-05-21T02:44:54.579Z,10.50
2017-05-21T02:45:52.289Z,10.50
2017-05-21T02:46:49.246Z,10.50
2017-05-21T02:47:46.199Z,10.50
2017-05-21T02:48:43.899Z,10.40
2017-05-21T02:49:40.854Z,10.40
2017-05-21T02:50:37.824Z,10.40
2017-05-21T02:51:34.782Z,10.40
2017-05-21T02:52:31.774Z,10.50
2017-05-21T02:53:28.754Z,10.40
2017-05-21T02:54:25.706Z,10.50
2017-05-21T02:55:22.881Z,10.40
2017-05-21T02:56:19.847Z,10.40
2017-05-21T02:57:16.802Z,10.40
2017-05-21T02:58:13.786Z,10.40
2017-05-21T02:59:10.814Z,10.40
2017-05-21T03:00:07.780Z,10.40
2017-05-21T03:01:04.733Z,10.30
2017-05-21T03:02:01.700Z,10.30
2017-05-21T03:02:58.661Z,10.30
2017-05-21T03:03:55.622Z,10.30
2017-05-21T03:04:52.583Z,10.30
2017-05-21T03:05:49.565Z,10.30
2017-05-21T03:06:46.550Z,10.30
2017-05-21T03:07:43.740Z,10.30
2017-05-21T03:08:40.699Z,10.20
2017-05-21T03:09:37.693Z,10.20
2017-05-21T03:10:34.642Z,10.20
2017-05-21T03:11:31.753Z,10.20
2017-05-21T03:12:28.708Z,10.20
2017-05-21T03:13:25.661Z,10.30
2017-05-21T03:14:22.634Z,10.30
2017-05-21T03:15:20.343Z,10.20
2017-05-21T03:16:17.302Z,10.20
2017-05-21T03:17:15.007Z,10.10
2017-05-21T03:18:11.956Z,10.10
2017-05-21T03:19:08.942Z,10.10
2017-05-21T03:20:05.934Z,10.10
2017-05-21T03:21:02.883Z,10.00
2017-05-21T03:21:59.922Z,10.00
2017-05-21T03:22:56.878Z,10.00
2017-05-21T03:23:53.877Z,10.00
2017-05-21T03:24:50.831Z,10.00
2017-05-21T03:25:47.852Z,10.00
2017-05-21T03:26:44.812Z,10.00
2017-05-21T03:27:41.768Z,9.90
2017-05-21T03:28:38.724Z,9.90
2017-05-21T03:29:36.391Z,10.00
2017-05-21T03:30:33.370Z,10.00
2017-05-21T03:31:31.088Z,10.00
2017-05-21T03:32:28.091Z,10.00
2017-05-21T03:33:25.089Z,10.00
2017-05-21T03:34:22.059Z,9.90
2017-05-21T03:35:19.042Z,9.90
2017-05-21T03:36:15.997Z,9.90
2017-05-21T03:37:12.957Z,10.00
2017-05-21T03:38:09.914Z,10.00
2017-05-21T03:39:06.946Z,9.90
2017-05-21T03:40:04.122Z,9.90
2017-05-21T03:41:01.073Z,9.90
2017-05-21T03:41:58.035Z,9.90
2017-05-21T03:42:55.750Z,9.90
2017-05-21T03:43:52.707Z,9.90
2017-05-21T03:44:50.442Z,9.90
2017-05-21T03:45:47.415Z,9.90
2017-05-21T03:46:44.389Z,10.00
2017-05-21T03:47:41.340Z,10.00
2017-05-21T03:48:38.294Z,10.00
2017-05-21T03:49:35.260Z,10.10
2017-05-21T03:50:32.235Z,10.10
2017-05-21T03:51:29.197Z,10.20
2017-05-21T03:52:26.162Z,10.30
2017-05-21T03:53:23.130Z,10.40
2017-05-21T03:54:20.107Z,10.40
2017-05-21T03:55:17.062Z,10.40
2017-05-21T03:56:14.035Z,10.40
2017-05-21T03:57:11.006Z,10.50
2017-05-21T03:58:07.969Z,10.70
2017-05-21T03:59:05.671Z,10.80
2017-05-21T04:00:02.620Z,11.00
2017-05-21T04:00:59.576Z,11.00
2017-05-21T04:01:56.528Z,11.10
2017-05-21T04:02:54.247Z,11.00
2017-05-21T04:03:51.202Z,10.90
2017-05-21T04:04:48.906Z,10.80
2017-05-21T04:05:45.871Z,10.70
2017-05-21T04:06:42.822Z,10.60
2017-05-21T04:07:39.784Z,10.60
2017-05-21T04:08:36.733Z,10.60
2017-05-21T04:09:33.711Z,10.60
2017-05-21T04:10:30.662Z,10.50
2017-05-21T04:11:27.966Z,10.40
2017-05-21T04:12:24.923Z,10.40
2017-05-21T04:13:21.895Z,10.40
2017-05-21T04:14:18.855Z,10.40
2017-05-21T04:15:15.828Z,10.40
2017-05-21T04:16:12.794Z,10.40
2017-05-21T04:17:09.764Z,10.30
2017-05-21T04:18:06.737Z,10.30
2017-05-21T04:19:03.698Z,10.30
2017-05-21T04:20:00.662Z,10.30
2017-05-21T04:20:57.618Z,10.30
2017-05-21T04:21:54.579Z,10.30
2017-05-21T04:22:51.563Z,10.30
2017-05-21T04:23:48.524Z,10.20
2017-05-21T04:24:45.480Z,10.20
2017-05-21T04:25:42.434Z,10.30
2017-05-21T04:26:39.422Z,10.30
2017-05-21T04:27:36.367Z,10.30
2017-05-21T04:28:33.326Z,10.30
2017-05-21T04:29:30.286Z,10.20
2017-05-21T04:30:27.990Z,10.20
2017-05-21T04:31:25.151Z,10.20
2017-05-21T04:32:22.127Z,10.20
2017-05-21T04:33:19.829Z,10.20
2017-05-21T04:34:16.783Z,10.30
2017-05-21T04:35:13.739Z,10.30
2017-05-21T04:36:10.702Z,10.30
2017-05-21T04:37:07.666Z,10.30
2017-05-21T04:38:04.654Z,10.30
2017-05-21T04:39:01.627Z,10.30
2017-05-21T04:39:58.582Z,10.20
2017-05-21T04:40:55.552Z,10.30
2017-05-21T04:41:53.264Z,10.30
2017-05-21T04:42:50.235Z,10.30
2017-05-21T04:43:47.931Z,10.30
2017-05-21T04:44:44.932Z,10.40
2017-05-21T04:45:41.884Z,10.40
2017-05-21T04:46:38.831Z,10.40
2017-05-21T04:47:35.786Z,10.40
2017-05-21T04:48:33.043Z,10.50
2017-05-21T04:49:29.995Z,10.50
2017-05-21T04:50:26.969Z,10.60
2017-05-21T04:51:23.924Z,10.60
2017-05-21T04:52:20.878Z,10.70
2017-05-21T04:53:17.833Z,10.70
2017-05-21T04:54:14.787Z,10.70
2017-05-21T04:55:11.743Z,10.70
2017-05-21T04:56:08.699Z,10.80
2017-05-21T04:57:05.654Z,10.80
2017-05-21T04:58:02.622Z,10.80
2017-05-21T04:58:59.588Z,10.80
2017-05-21T04:59:56.550Z,10.80
2017-05-21T05:00:53.527Z,10.80
2017-05-21T05:01:50.483Z,10.80
2017-05-21T05:02:47.836Z,10.80
2017-05-21T05:03:44.798Z,10.80
2017-05-21T05:04:41.759Z,10.90
2017-05-21T05:05:38.714Z,10.90
2017-05-21T05:06:35.688Z,10.90
2017-05-21T05:07:32.642Z,10.90
2017-05-21T05:08:29.606Z,10.90
2017-05-21T05:09:26.615Z,10.90
2017-05-21T05:10:23.537Z,10.90
2017-05-21T05:11:20.514Z,10.90
2017-05-21T05:12:17.482Z,10.90
2017-05-21T05:13:14.434Z,11.00
2017-05-21T05:14:11.391Z,11.00
2017-05-21T05:15:08.353Z,11.00
2017-05-21T05:16:05.387Z,11.10
2017-05-21T05:17:02.355Z,11.10
2017-05-21T05:17:59.316Z,11.10
2017-05-21T05:18:56.294Z,11.20
2017-05-21T05:19:53.248Z,11.30
2017-05-21T05:20:50.266Z,11.30
2017-05-21T05:21:47.218Z,11.30
2017-05-21T05:22:44.172Z,11.30
2017-05-21T05:23:41.897Z,11.40
2017-05-21T05:24:38.871Z,11.40
2017-05-21T05:25:35.822Z,11.50
2017-05-21T05:26:32.781Z,11.50
2017-05-21T05:27:29.765Z,11.60
2017-05-21T05:28:26.734Z,11.80
2017-05-21T05:29:23.701Z,12.00
2017-05-21T05:30:20.688Z,12.20
2017-05-21T05:31:17.641Z,12.30
2017-05-21T05:32:14.594Z,12.40
2017-05-21T05:33:11.554Z,12.40
2017-05-21T05:34:08.622Z,12.40
2017-05-21T05:35:05.586Z,12.40
2017-05-21T05:36:02.541Z,12.60
2017-05-21T05:36:59.490Z,12.80
2017-05-21T05:37:56.510Z,12.80
2017-05-21T05:38:53.462Z,13.00
2017-05-21T05:39:50.600Z,13.00
2017-05-21T05:40:47.945Z,13.20
2017-05-21T05:41:44.915Z,13.30
2017-05-21T05:42:41.874Z,13.50
2017-05-21T05:43:38.835Z,13.60
2017-05-21T05:44:35.790Z,13.80
2017-05-21T05:45:32.741Z,13.90
2017-05-21T05:46:29.699Z,14.00
2017-05-21T05:47:27.278Z,14.20
2017-05-21T05:48:24.273Z,14.30
2017-05-21T05:49:21.233Z,14.30
2017-05-21T05:50:18.194Z,14.50
2017-05-21T05:51:15.170Z,14.50
2017-05-21T05:52:12.140Z,14.60
2017-05-21T05:53:09.087Z,14.70
2017-05-21T05:54:06.038Z,14.80
2017-05-21T05:55:02.994Z,15.00
2017-05-21T05:55:59.968Z,15.10
2017-05-21T05:56:56.929Z,15.30
2017-05-21T05:57:53.893Z,15.50
2017-05-21T05:58:50.839Z,15.60
2017-05-21T05:59:47.810Z,15.90
2017-05-21T06:00:44.762Z,16.20
2017-05-21T06:01:41.718Z,16.30
2017-05-21T06:02:38.682Z,16.50
2017-05-21T06:03:35.693Z,16.60
2017-05-21T06:04:32.652Z,16.80
2017-05-21T06:05:29.651Z,16.80
2017-05-21T06:06:26.667Z,17.10
2017-05-21T06:07:23.588Z,17.40
2017-05-21T06:08:20.565Z,17.60
2017-05-21T06:09:17.562Z,17.80
2017-05-21T06:10:14.548Z,18.00
2017-05-21T06:11:11.535Z,18.30
2017-05-21T06:12:08.483Z,18.40
2017-05-21T06:13:05.445Z,18.80
2017-05-21T06:14:02.399Z,19.00
2017-05-21T06:14:59.384Z,19.10
2017-05-21T06:15:56.347Z,19.30
2017-05-21T06:16:53.328Z,19.50
2017-05-21T06:17:50.284Z,19.60
2017-05-21T06:18:47.234Z,19.70
2017-05-21T06:19:44.186Z,19.70
2017-05-21T06:20:41.152Z,19.50
2017-05-21T06:21:38.111Z,19.40
2017-05-21T06:22:35.079Z,19.40
2017-05-21T06:23:32.062Z,19.40
2017-05-21T06:24:29.013Z,19.40
2017-05-21T06:25:25.972Z,19.40
2017-05-21T06:26:22.950Z,19.50
2017-05-21T06:27:19.906Z,19.60
2017-05-21T06:28:16.859Z,19.90
2017-05-21T06:29:13.819Z,20.30
2017-05-21T06:30:10.778Z,20.90
2017-05-21T06:31:07.731Z,21.60
2017-05-21T06:32:04.694Z,22.40
2017-05-21T06:33:01.643Z,23.10
2017-05-21T06:33:58.851Z,23.40
2017-05-21T06:34:55.817Z,24.10
2017-05-21T06:35:53.539Z,24.80
2017-05-21T06:36:50.874Z,25.40
2017-05-21T06:37:47.859Z,25.90
2017-05-21T06:38:44.825Z,26.00
2017-05-21T06:39:41.770Z,26.40
2017-05-21T06:40:38.726Z,26.70
2017-05-21T06:41:35.685Z,26.80
2017-05-21T06:42:32.642Z,26.80
2017-05-21T06:43:29.597Z,26.50
2017-05-21T06:44:26.557Z,26.30
2017-05-21T06:45:23.521Z,26.00
2017-05-21T06:46:21.211Z,25.80
2017-05-21T06:47:19.114Z,25.60
2017-05-21T06:48:16.072Z,25.30
2017-05-21T06:49:13.029Z,25.20
2017-05-21T06:50:09.990Z,25.20
2017-05-21T06:51:06.967Z,25.30
2017-05-21T06:52:04.658Z,25.50
2017-05-21T06:53:01.617Z,25.70
2017-05-21T06:53:58.574Z,26.10
2017-05-21T06:54:55.526Z,26.60
2017-05-21T06:55:53.227Z,26.80
2017-05-21T07:44:43.936Z,32.30
2017-05-21T07:45:42.211Z,32.40
2017-05-21T07:46:40.467Z,32.40
2017-05-21T07:47:39.016Z,32.50
2017-05-21T07:48:37.293Z,32.40
2017-05-21T07:49:36.296Z,32.20
2017-05-21T07:50:35.529Z,32.40
2017-05-21T07:51:33.831Z,32.60
2017-05-21T07:52:32.100Z,32.70
2017-05-21T07:53:30.364Z,32.90
2017-05-21T07:54:29.412Z,32.70
2017-05-21T07:55:28.404Z,32.60
2017-05-21T07:56:26.717Z,32.20
2017-05-21T07:57:25.049Z,31.90
2017-05-21T07:58:23.303Z,31.90
2017-05-21T07:59:21.569Z,31.80
2017-05-21T08:00:19.887Z,32.10
2017-05-21T08:01:18.149Z,32.40
2017-05-21T08:02:16.467Z,32.50
2017-05-21T08:03:14.728Z,32.70
2017-05-21T08:04:14.493Z,32.70
2017-05-21T08:05:12.779Z,32.40
2017-05-21T08:06:11.085Z,32.10
2017-05-21T08:07:09.477Z,31.70
2017-05-21T08:08:08.006Z,31.70
2017-05-21T08:09:06.350Z,31.50
2017-05-21T08:10:05.367Z,31.50
2017-05-21T08:11:03.695Z,31.10
2017-05-21T08:12:01.943Z,30.90
2017-05-21T08:13:00.324Z,31.20
2017-05-21T08:13:59.191Z,31.40
2017-05-21T08:14:57.449Z,31.60
2017-05-21T08:15:55.711Z,31.60
2017-05-21T08:16:55.353Z,31.50
2017-05-21T08:17:54.229Z,31.30
2017-05-21T08:18:53.857Z,31.30
2017-05-21T08:19:52.156Z,31.50
2017-05-21T08:20:51.631Z,31.30
2017-05-21T08:21:49.940Z,31.10
2017-05-21T08:22:48.812Z,31.40
2017-05-21T08:23:47.093Z,31.40
2017-05-21T08:24:45.353Z,31.20
2017-05-21T08:25:44.391Z,31.10
2017-05-21T08:26:43.055Z,31.20
2017-05-21T08:27:41.323Z,31.20
2017-05-21T08:28:39.596Z,31.10
2017-05-21T08:29:37.845Z,30.80
2017-05-21T08:30:36.282Z,30.60
2017-05-21T08:31:34.564Z,30.10
2017-05-21T08:32:32.828Z,30.30
2017-05-21T08:33:31.074Z,29.90
2017-05-21T08:34:29.359Z,29.60
2017-05-21T08:35:27.640Z,29.10
2017-05-21T08:36:29.683Z,28.40
2017-05-21T08:37:31.412Z,27.40
2017-05-21T08:38:29.670Z,26.50
2017-05-21T08:39:27.936Z,25.80
2017-05-21T08:40:26.216Z,24.90
2017-05-21T08:41:24.492Z,24.50
2017-05-21T08:42:22.748Z,24.10
2017-05-21T08:43:21.013Z,23.90
2017-05-21T08:44:19.291Z,23.60
2017-05-21T08:45:17.626Z,23.20
2017-05-21T08:46:16.958Z,23.00
2017-05-21T08:47:16.230Z,22.80
2017-05-21T08:48:14.544Z,22.70
2017-05-21T08:49:13.126Z,22.50
2017-05-21T08:50:11.375Z,22.50
2017-05-21T08:51:09.662Z,22.40
2017-05-21T08:52:07.956Z,22.30
2017-05-21T08:53:07.108Z,22.20
2017-05-21T08:54:05.566Z,22.20
2017-05-21T08:55:04.033Z,22.10
2017-05-21T08:56:02.704Z,22.00
2017-05-21T08:57:01.922Z,22.00
2017-05-21T08:58:01.071Z,22.00
2017-05-21T08:59:00.708Z,21.80
2017-05-21T09:00:00.743Z,21.80
2017-05-21T09:01:03.393Z,21.80
2017-05-21T09:02:02.004Z,21.80
2017-05-21T09:03:00.443Z,21.80
2017-05-21T09:03:59.442Z,21.80
2017-05-21T09:04:58.236Z,21.90
2017-05-21T09:05:58.196Z,21.90
2017-05-21T09:06:57.982Z,22.00
2017-05-21T09:07:56.917Z,22.00
2017-05-21T09:08:55.571Z,21.90
2017-05-21T09:09:56.599Z,22.00
2017-05-21T09:10:55.287Z,21.90
2017-05-21T09:11:53.652Z,21.80
2017-05-21T09:12:52.467Z,21.80
2017-05-21T09:13:51.010Z,21.70
2017-05-21T09:14:49.338Z,21.70
2017-05-21T09:15:48.092Z,21.70
2017-05-21T09:16:46.548Z,21.60
2017-05-21T09:17:45.335Z,21.70
2017-05-21T09:18:43.675Z,21.80
2017-05-21T09:19:41.933Z,21.90
2017-05-21T09:20:40.235Z,21.90
2017-05-21T09:21:38.580Z,21.90
2017-05-21T09:22:38.359Z,21.90
2017-05-21T09:23:38.174Z,21.90
2017-05-21T09:24:36.437Z,21.70
2017-05-21T09:25:34.709Z,21.70
2017-05-21T09:26:32.977Z,21.60
2017-05-21T09:27:32.236Z,21.60
2017-05-21T09:28:30.510Z,21.60
2017-05-21T09:29:29.674Z,21.60
2017-05-21T09:30:27.950Z,21.70
2017-05-21T09:31:28.396Z,21.80
2017-05-21T09:32:27.375Z,21.80
2017-05-21T09:33:26.371Z,21.70
2017-05-21T09:34:25.479Z,21.80
2017-05-21T09:35:23.935Z,21.80
2017-05-21T09:36:22.220Z,21.80
2017-05-21T09:37:20.507Z,21.80
2017-05-21T09:38:18.761Z,21.50
2017-05-21T09:39:17.086Z,21.50
2017-05-21T09:40:16.109Z,21.20
2017-05-21T09:41:16.108Z,20.90
2017-05-21T09:42:16.185Z,20.60
2017-05-21T09:43:15.206Z,20.60
2017-05-21T09:44:13.616Z,20.50
2017-05-21T09:45:15.002Z,20.40
2017-05-21T09:46:14.055Z,20.40
2017-05-21T09:47:12.312Z,20.30
2017-05-21T09:48:10.600Z,20.30
2017-05-21T09:49:09.640Z,20.30
2017-05-21T09:50:07.978Z,20.40
2017-05-21T09:51:06.268Z,20.40
2017-05-21T09:52:04.515Z,20.50
2017-05-21T09:53:02.811Z,20.50
2017-05-21T09:54:02.741Z,20.60
2017-05-21T09:55:02.421Z,20.70
2017-05-21T09:56:00.708Z,20.70
2017-05-21T09:56:59.258Z,20.80
2017-05-21T09:57:58.056Z,20.90
2017-05-21T09:58:56.904Z,20.90
2017-05-21T09:59:55.566Z,20.80
2017-05-21T10:00:54.956Z,20.70
2017-05-21T10:01:53.237Z,20.70
2017-05-21T10:02:51.617Z,20.70
2017-05-21T10:03:50.643Z,20.60
2017-05-21T10:04:48.984Z,20.60
2017-05-21T10:05:47.266Z,20.50
2017-05-21T10:06:45.905Z,20.50
2017-05-21T10:07:44.187Z,20.50
2017-05-21T10:08:42.438Z,20.60
2017-05-21T10:09:40.692Z,20.70
2017-05-21T10:10:38.987Z,20.80
2017-05-21T10:11:38.213Z,20.80
2017-05-21T10:12:36.464Z,20.90
2017-05-21T10:13:36.319Z,20.90
2017-05-21T10:14:36.054Z,21.00
2017-05-21T10:15:35.833Z,21.10
2017-05-21T10:16:36.612Z,21.10
2017-05-21T10:17:35.665Z,21.10
2017-05-21T10:18:35.515Z,21.10
2017-05-21T10:19:33.794Z,20.80
2017-05-21T10:20:32.080Z,20.90
2017-05-21T10:21:32.117Z,20.90
2017-05-21T10:22:30.407Z,20.50
2017-05-21T10:23:30.277Z,20.50
2017-05-21T10:24:28.548Z,20.50
2017-05-21T10:25:26.832Z,20.50
2017-05-21T10:26:25.596Z,20.50
2017-05-21T10:27:23.903Z,20.40
2017-05-21T10:28:22.156Z,20.40
2017-05-21T10:29:20.413Z,20.40
2017-05-21T10:30:20.587Z,20.50
2017-05-21T10:31:19.828Z,20.50
2017-05-21T10:32:18.654Z,20.30
2017-05-21T10:33:16.924Z,20.30
2017-05-21T10:34:15.935Z,20.00
2017-05-21T10:35:16.374Z,19.90
2017-05-21T10:36:16.007Z,20.00
2017-05-21T10:37:15.384Z,20.20
2017-05-21T10:38:13.656Z,20.40
2017-05-21T10:39:11.924Z,20.60
2017-05-21T10:40:10.353Z,20.80
2017-05-21T10:41:08.940Z,21.10
2017-05-21T10:42:07.483Z,21.30
2017-05-21T10:43:06.010Z,21.40
2017-05-21T10:44:04.544Z,21.50
2017-05-21T10:45:02.866Z,21.60
2017-05-21T10:46:01.256Z,21.70
2017-05-21T10:46:59.593Z,21.60
2017-05-21T10:47:57.887Z,21.50
2017-05-21T10:48:56.892Z,21.50
2017-05-21T10:49:55.154Z,21.50
2017-05-21T10:50:53.419Z,21.50
2017-05-21T10:51:51.684Z,21.50
2017-05-21T10:52:49.984Z,21.50
2017-05-21T10:53:48.361Z,21.50
2017-05-21T10:54:49.792Z,21.50
2017-05-21T10:55:48.085Z,21.50
2017-05-21T10:56:46.706Z,21.50
2017-05-21T10:57:45.222Z,21.50
2017-05-21T10:58:43.469Z,21.50
2017-05-21T10:59:41.736Z,21.50
2017-05-21T11:00:41.828Z,21.60
2017-05-21T11:01:41.019Z,21.60
2017-05-21T11:02:39.337Z,21.70
2017-05-21T11:03:38.379Z,21.80
2017-05-21T11:04:36.671Z,21.80
2017-05-21T11:05:34.926Z,21.90
2017-05-21T11:06:33.187Z,22.00
2017-05-21T11:07:32.305Z,22.10
2017-05-21T11:08:30.564Z,22.20
2017-05-21T11:09:28.857Z,22.40
2017-05-21T11:10:27.862Z,22.50
2017-05-21T11:11:26.782Z,22.50
2017-05-21T11:12:26.156Z,22.60
2017-05-21T11:13:24.456Z,22.60
2017-05-21T11:14:22.715Z,22.70
2017-05-21T11:15:21.047Z,22.80
2017-05-21T11:16:19.402Z,22.80
2017-05-21T11:17:17.934Z,22.90
2017-05-21T11:18:16.197Z,23.00
2017-05-21T11:19:14.464Z,23.00
2017-05-21T11:20:15.598Z,23.00
2017-05-21T11:21:14.927Z,22.90
2017-05-21T11:22:14.137Z,22.80
2017-05-21T11:23:13.373Z,22.70
2017-05-21T11:24:13.026Z,22.70
2017-05-21T11:25:12.176Z,22.80
2017-05-21T11:26:10.467Z,22.80
2017-05-21T11:27:09.304Z,22.90
2017-05-21T11:28:09.885Z,22.70
2017-05-21T11:29:08.908Z,22.90
2017-05-21T11:30:08.965Z,23.00
2017-05-21T11:31:07.951Z,23.00
2017-05-21T11:32:07.644Z,23.00
2017-05-21T11:33:06.056Z,23.10
2017-05-21T11:34:04.428Z,23.20
2017-05-21T11:35:02.892Z,23.30
2017-05-21T11:36:02.157Z,23.40
2017-05-21T11:37:02.741Z,23.30
2017-05-21T11:38:01.695Z,23.10
2017-05-21T11:38:59.979Z,23.10
2017-05-21T11:40:00.517Z,23.00
2017-05-21T11:40:59.363Z,23.00
2017-05-21T11:41:58.740Z,22.70
2017-05-21T11:42:57.249Z,22.70
2017-05-21T11:43:55.525Z,22.70
2017-05-21T11:44:54.595Z,22.60
2017-05-21T11:45:53.598Z,22.40
2017-05-21T11:46:52.602Z,22.30
2017-05-21T11:47:50.991Z,22.40
2017-05-21T11:48:51.263Z,22.40
2017-05-21T11:49:50.065Z,22.30
2017-05-21T11:50:48.326Z,22.40
2017-05-21T11:51:46.666Z,22.40
2017-05-21T11:52:44.937Z,22.30
2017-05-21T11:53:43.312Z,22.30
2017-05-21T11:54:41.621Z,22.40
2017-05-21T11:55:40.857Z,22.50
2017-05-21T11:56:39.127Z,22.50
2017-05-21T11:57:37.557Z,22.60
2017-05-21T11:58:37.102Z,22.50
2017-05-21T11:59:35.685Z,22.30
2017-05-21T12:00:33.941Z,22.20
2017-05-21T12:01:32.946Z,22.20
2017-05-21T12:02:31.442Z,22.20
2017-05-21T12:03:29.682Z,22.20
2017-05-21T12:04:27.961Z,22.30
2017-05-21T12:05:26.267Z,22.40
2017-05-21T12:06:24.548Z,22.60
2017-05-21T12:07:23.628Z,22.70
2017-05-21T12:08:22.634Z,22.90
2017-05-21T12:09:20.915Z,23.10
2017-05-21T12:10:19.216Z,23.30
2017-05-21T12:11:18.211Z,23.30
2017-05-21T12:12:16.465Z,23.40
2017-05-21T12:13:15.479Z,23.40
2017-05-21T12:14:14.478Z,23.40
2017-05-21T12:15:12.757Z,23.50
2017-05-21T12:16:11.027Z,23.60
2017-05-21T12:17:09.291Z,23.70
2017-05-21T12:18:07.766Z,23.80
2017-05-21T12:19:06.147Z,23.90
2017-05-21T12:20:04.634Z,23.90
2017-05-21T12:21:02.909Z,24.00
2017-05-21T12:22:01.741Z,24.10
2017-05-21T12:23:00.050Z,23.90
2017-05-21T12:23:58.967Z,23.90
2017-05-21T12:24:57.250Z,23.70
2017-05-21T12:25:55.512Z,23.50
2017-05-21T12:26:53.790Z,23.40
2017-05-21T12:27:52.111Z,23.30
2017-05-21T12:28:50.850Z,23.30
2017-05-21T12:29:49.116Z,23.20
2017-05-21T12:30:47.384Z,23.20
2017-05-21T12:31:45.643Z,23.00
2017-05-21T12:32:45.528Z,22.60
2017-05-21T12:33:43.805Z,22.50
2017-05-21T12:34:42.852Z,22.30
2017-05-21T12:35:41.295Z,22.30
2017-05-21T12:36:39.607Z,22.30
2017-05-21T12:37:38.520Z,22.00
2017-05-21T12:38:37.631Z,21.80
2017-05-21T12:39:38.000Z,21.70
2017-05-21T12:40:37.746Z,21.40
2017-05-21T12:41:36.182Z,21.50
2017-05-21T12:42:36.029Z,21.40
2017-05-21T12:43:34.967Z,21.20
2017-05-21T12:44:37.324Z,21.10
2017-05-21T12:45:36.997Z,21.10
2017-05-21T12:46:37.027Z,21.10
2017-05-21T12:47:35.296Z,20.90
2017-05-21T12:48:33.592Z,20.90
2017-05-21T12:49:31.877Z,20.90
2017-05-21T12:50:32.028Z,21.00
2017-05-21T12:51:32.589Z,21.00
2017-05-21T12:52:30.855Z,21.00
2017-05-21T12:53:29.175Z,20.80
2017-05-21T12:54:27.446Z,21.00
2017-05-21T12:55:25.680Z,21.10
2017-05-21T12:56:23.953Z,21.30
2017-05-21T12:57:23.017Z,21.40
2017-05-21T12:58:22.173Z,21.60
2017-05-21T12:59:22.866Z,21.70
2017-05-21T13:00:21.789Z,21.70
2017-05-21T13:01:20.040Z,21.80
2017-05-21T13:02:19.166Z,22.00
2017-05-21T13:03:17.452Z,22.00
2017-05-21T13:04:17.347Z,22.00
2017-05-21T13:05:18.524Z,22.10
2017-05-21T13:06:16.805Z,22.20
2017-05-21T13:07:15.381Z,22.20
2017-05-21T13:08:15.484Z,22.30
2017-05-21T13:09:14.080Z,22.30
2017-05-21T13:10:14.072Z,22.40
2017-05-21T13:11:16.074Z,22.30
2017-05-21T13:12:15.623Z,22.00
2017-05-21T13:13:13.959Z,21.90